Página principal
METAR-TAF:

METAR-TAF

Aeroportos :

Tunes, Tunísia

Aeroporto Internacional de Túnis-Cartago

latitude: 36-50N, longitude: 010-14E, altura: 3 m

Observação actual do tempo

O boletim foi feito há 32 minutos, às 10:30 UTC
Vento 5 kt de su-sudeste, variando entre es-sudeste e sul
Temperatura 26°C
Humidade 45%
Pressão 1019 hPa
Visibilidade 10 km ou mais
sem nuvens abaixo de 1500 metros e sem cumulonimbus

METAR: DTTA 181030Z 15005KT 110V190 CAVOK 26/13 Q1019 NOSIG

Hora: 12:02 (11:02 UTC)

Previsão

O boletim foi feito há 5 horas e 26 minutos, às 05:36 UTC
Previsão válida de 18 às 06 UTC a 19 às 06 UTC
Vento 8 kt de sul
Visibilidade 10 km ou mais
sem nuvens abaixo de 1500 metros e sem cumulonimbus

TAF: DTTA 180536Z 1806/1906 18008KT CAVOK

Observações e previsões do tempo de mais de 4000 aeroportos (mensagens METAR e TAF).

As estações disponíveis são os pontos amarelos e vermelhos sobre o mapa.

Mova o rato sobre o mapa para ver o nome da estação.

Depois clique no ponto para visualizar as observações e previsões meteorológicas.

Para alterar o mapa : clique nos botões verdes com uma cruz preta para aumentar o zoom; no botão verde com uma pitada de zoom; ou nas setas verdes para mapas adjacentes.


METAR-TAF: